Time;durP1;ratioP1;P1;durP2;ratioP2;P2;SDS_P1;SDS_P2;PMS_P1;PMS_P2;Temp;Humidity;BMP_temperature;BMP_pressure;BME280_temperature;BME280_humidity;BME280_pressure;Samples;Min_cycle;Max_cycle;Signal;HPM_P1;HPM_P2
2023/07/22 00:01:54;;;;;;;1.85;1.42;;;;;;;;;;5114594;28;20031;-87
2023/07/22 00:04:20;;;;;;;1.27;1.10;;;;;;;;;;5115340;28;20749;-84
2023/07/22 00:06:45;;;;;;;1.92;1.20;;;;;;;;;;5130538;28;20394;-83
2023/07/22 00:09:11;;;;;;;5.20;1.13;;;;;;;;;;5134976;28;20499;-86
2023/07/22 00:11:36;;;;;;;1.27;1.00;;;;;;;;;;5115924;28;20068;-85
2023/07/22 00:14:02;;;;;;;2.70;1.75;;;;;;;;;;5115123;28;20034;-85
2023/07/22 00:16:29;;;;;;;2.70;1.27;;;;;;;;;;5133264;28;20027;-85
2023/07/22 00:18:54;;;;;;;1.48;1.08;;;;;;;;;;5132890;28;20019;-85
2023/07/22 00:21:20;;;;;;;1.23;1.10;;;;;;;;;;5130653;27;20038;-83
2023/07/22 00:23:46;;;;;;;3.33;1.85;;;;;;;;;;5111598;28;20031;-86
2023/07/22 00:26:11;;;;;;;1.38;1.05;;;;;;;;;;5133309;28;20031;-86
2023/07/22 00:28:37;;;;;;;1.70;1.20;;;;;;;;;;5132900;28;20527;-88
2023/07/22 00:31:03;;;;;;;2.88;1.52;;;;;;;;;;5114328;28;20023;-85
2023/07/22 00:33:28;;;;;;;3.13;1.52;;;;;;;;;;5113991;28;20029;-86
2023/07/22 00:35:54;;;;;;;1.27;1.10;;;;;;;;;;5133515;28;20110;-87
2023/07/22 00:38:19;;;;;;;1.77;1.17;;;;;;;;;;5133840;28;20424;-86
2023/07/22 00:40:45;;;;;;;2.53;1.48;;;;;;;;;;5133485;28;20027;-87
2023/07/22 00:43:11;;;;;;;2.47;1.42;;;;;;;;;;5133640;28;20019;-88
2023/07/22 00:45:36;;;;;;;2.05;1.50;;;;;;;;;;5069342;28;1220938;-88
2023/07/22 00:48:04;;;;;;;1.73;1.15;;;;;;;;;;5111862;28;20059;-86
2023/07/22 00:50:31;;;;;;;2.40;1.30;;;;;;;;;;5112802;28;20024;-90
2023/07/22 00:52:57;;;;;;;1.73;1.48;;;;;;;;;;5113547;28;20407;-89
2023/07/22 00:55:23;;;;;;;8.82;1.50;;;;;;;;;;5112793;28;20059;-88
2023/07/22 00:57:48;;;;;;;3.97;1.65;;;;;;;;;;5114340;28;20050;-88
2023/07/22 01:00:16;;;;;;;2.67;1.70;;;;;;;;;;5112937;28;20080;-86
2023/07/22 01:02:42;;;;;;;4.03;2.22;;;;;;;;;;5113100;28;20524;-88
2023/07/22 01:05:10;;;;;;;4.25;1.75;;;;;;;;;;5113780;28;20027;-87
2023/07/22 01:07:36;;;;;;;1.77;1.25;;;;;;;;;;5111332;28;20028;-86
2023/07/22 01:10:08;;;;;;;2.70;1.42;;;;;;;;;;5113090;28;20027;-86
2023/07/22 01:12:34;;;;;;;2.97;1.30;;;;;;;;;;5112051;28;20023;-85
2023/07/22 01:15:00;;;;;;;2.30;1.35;;;;;;;;;;5114313;28;20028;-83
2023/07/22 01:17:26;;;;;;;2.33;1.13;;;;;;;;;;5109953;28;20165;-84
2023/07/22 01:19:52;;;;;;;2.50;1.85;;;;;;;;;;5113406;28;20497;-84
2023/07/22 01:22:18;;;;;;;1.63;1.23;;;;;;;;;;5113749;28;20039;-86
2023/07/22 01:24:44;;;;;;;2.75;1.48;;;;;;;;;;5110474;28;20035;-85
2023/07/22 01:27:12;;;;;;;1.73;1.23;;;;;;;;;;5111059;28;20106;-85
2023/07/22 01:29:37;;;;;;;2.83;1.65;;;;;;;;;;5109838;28;20023;-85
2023/07/22 01:32:03;;;;;;;2.22;1.25;;;;;;;;;;5114981;28;20020;-84
2023/07/22 01:34:29;;;;;;;2.28;1.45;;;;;;;;;;5112141;28;20028;-84
2023/07/22 01:36:55;;;;;;;2.72;2.15;;;;;;;;;;5110463;28;20035;-84
2023/07/22 01:39:21;;;;;;;4.45;2.22;;;;;;;;;;5110675;28;20028;-85
2023/07/22 01:41:47;;;;;;;3.55;1.48;;;;;;;;;;5110881;28;20066;-83
2023/07/22 01:44:14;;;;;;;4.97;1.73;;;;;;;;;;5116314;27;20043;-82
2023/07/22 01:46:40;;;;;;;2.65;1.60;;;;;;;;;;5130126;27;20043;-86
2023/07/22 01:49:09;;;;;;;2.78;1.77;;;;;;;;;;5113865;27;20062;-85
2023/07/22 01:51:37;;;;;;;;;;;;;;;;;;5131824;27;20136;-84
2023/07/22 01:54:03;;;;;;;3.25;1.30;;;;;;;;;;5113168;27;19994;-83
2023/07/22 01:56:28;;;;;;;0.73;0.73;;;;;;;;;;5130375;27;20023;-86
2023/07/22 01:58:55;;;;;;;5.10;1.17;;;;;;;;;;5115185;27;20078;-84
2023/07/22 02:01:20;;;;;;;0.90;0.85;;;;;;;;;;5113148;27;20019;-83
2023/07/22 02:03:46;;;;;;;3.92;1.48;;;;;;;;;;5132670;27;20042;-84
2023/07/22 02:06:12;;;;;;;1.92;1.17;;;;;;;;;;5134049;27;20023;-86
2023/07/22 02:08:40;;;;;;;1.42;1.33;;;;;;;;;;5133317;27;20030;-88
2023/07/22 02:11:08;;;;;;;2.35;1.33;;;;;;;;;;5133146;27;20489;-87
2023/07/22 02:13:34;;;;;;;1.73;1.35;;;;;;;;;;5113219;28;20058;-88
2023/07/22 02:16:01;;;;;;;5.65;1.58;;;;;;;;;;5134081;28;20516;-86
2023/07/22 02:18:27;;;;;;;2.35;1.52;;;;;;;;;;5111548;28;20023;-86
2023/07/22 02:20:53;;;;;;;3.08;2.50;;;;;;;;;;5131310;28;20052;-86
2023/07/22 02:23:19;;;;;;;2.33;2.13;;;;;;;;;;5133432;28;20438;-84
2023/07/22 02:25:48;;;;;;;2.28;1.40;;;;;;;;;;5114840;28;20050;-87
2023/07/22 02:28:15;;;;;;;5.78;2.42;;;;;;;;;;5113430;28;20061;-85
2023/07/22 02:30:44;;;;;;;1.90;1.45;;;;;;;;;;5131333;27;20467;-86
2023/07/22 02:33:09;;;;;;;2.67;1.70;;;;;;;;;;5114215;28;20023;-86
2023/07/22 02:35:35;;;;;;;1.23;1.08;;;;;;;;;;5113805;28;20493;-85
2023/07/22 02:38:02;;;;;;;7.05;1.50;;;;;;;;;;5113523;28;20023;-84
2023/07/22 02:40:27;;;;;;;4.20;2.13;;;;;;;;;;5132082;28;20063;-86
2023/07/22 02:42:53;;;;;;;5.88;1.02;;;;;;;;;;5132411;28;20074;-85
2023/07/22 02:45:18;;;;;;;1.77;1.38;;;;;;;;;;5112735;28;20051;-86
2023/07/22 02:47:44;;;;;;;2.17;1.23;;;;;;;;;;5114158;28;20033;-86
2023/07/22 02:50:10;;;;;;;2.75;1.75;;;;;;;;;;5116933;28;20034;-86
2023/07/22 02:52:36;;;;;;;1.73;1.15;;;;;;;;;;5131637;28;20019;-86
2023/07/22 02:55:06;;;;;;;2.33;1.73;;;;;;;;;;5113930;28;20023;-88
2023/07/22 02:57:31;;;;;;;2.05;1.13;;;;;;;;;;5132668;28;20019;-88
2023/07/22 02:59:57;;;;;;;3.50;1.88;;;;;;;;;;5131954;28;20027;-88
2023/07/22 03:02:22;;;;;;;3.83;1.88;;;;;;;;;;5111826;28;20129;-88
2023/07/22 03:04:48;;;;;;;2.80;1.85;;;;;;;;;;5112350;28;20076;-87
2023/07/22 03:07:14;;;;;;;2.35;1.45;;;;;;;;;;5113912;28;20066;-90
2023/07/22 03:09:40;;;;;;;3.15;1.90;;;;;;;;;;5132460;28;20019;-87
2023/07/22 03:12:06;;;;;;;2.58;2.05;;;;;;;;;;5112755;28;20027;-86
2023/07/22 03:14:36;;;;;;;2.63;1.85;;;;;;;;;;5134958;27;20019;-89
2023/07/22 03:17:02;;;;;;;5.47;1.77;;;;;;;;;;5116688;27;20098;-87
2023/07/22 03:19:27;;;;;;;4.22;1.63;;;;;;;;;;5132933;27;20023;-86
2023/07/22 03:21:53;;;;;;;3.10;2.28;;;;;;;;;;5135597;27;20024;-86
2023/07/22 03:24:18;;;;;;;2.67;1.75;;;;;;;;;;5135392;27;20046;-85
2023/07/22 03:26:44;;;;;;;5.28;2.28;;;;;;;;;;5133478;27;20030;-86
2023/07/22 03:29:09;;;;;;;3.22;1.73;;;;;;;;;;5117799;27;20030;-85
2023/07/22 03:31:35;;;;;;;1.77;1.30;;;;;;;;;;5133117;27;20479;-85
2023/07/22 03:34:03;;;;;;;2.15;1.75;;;;;;;;;;5135673;27;20027;-87
2023/07/22 03:36:29;;;;;;;1.83;1.38;;;;;;;;;;5135229;27;20020;-87
2023/07/22 03:39:25;;;;;;;2.45;1.42;;;;;;;;;;5134047;27;20088;-87
2023/07/22 03:41:50;;;;;;;1.17;1.05;;;;;;;;;;5135572;27;20069;-86
2023/07/22 03:44:16;;;;;;;1.88;1.58;;;;;;;;;;5132237;27;20563;-88
2023/07/22 03:46:41;;;;;;;2.08;1.15;;;;;;;;;;5117133;27;20106;-88
2023/07/22 03:49:07;;;;;;;1.08;0.98;;;;;;;;;;5133457;27;20072;-86
2023/07/22 03:51:33;;;;;;;3.45;2.15;;;;;;;;;;5135410;27;20471;-86
2023/07/22 03:53:58;;;;;;;0.80;0.80;;;;;;;;;;5116284;27;20058;-87
2023/07/22 03:56:24;;;;;;;2.35;1.23;;;;;;;;;;5147729;27;20402;-86
2023/07/22 03:59:44;;;;;;;1.45;1.02;;;;;;;;;;5134943;27;20023;-92
2023/07/22 04:02:30;;;;;;;1.70;1.60;;;;;;;;;;5118245;27;20091;-92
2023/07/22 04:04:56;;;;;;;2.15;1.83;;;;;;;;;;5118218;27;20142;-92
2023/07/22 04:08:13;;;;;;;4.70;2.15;;;;;;;;;;5116827;27;20030;-92
2023/07/22 04:10:50;;;;;;;2.75;1.27;;;;;;;;;;5115695;27;20378;-86
2023/07/22 04:13:16;;;;;;;2.33;1.05;;;;;;;;;;5114714;27;20039;-86
2023/07/22 04:15:41;;;;;;;7.63;2.08;;;;;;;;;;5115243;27;20045;-86
2023/07/22 04:18:07;;;;;;;1.63;1.52;;;;;;;;;;5115046;27;20023;-87
2023/07/22 04:20:34;;;;;;;1.85;1.23;;;;;;;;;;5133904;27;20359;-84
2023/07/22 04:22:59;;;;;;;1.38;1.20;;;;;;;;;;5133551;27;20095;-85
2023/07/22 04:25:25;;;;;;;0.88;0.80;;;;;;;;;;5132661;27;20490;-83
2023/07/22 04:27:50;;;;;;;3.50;2.40;;;;;;;;;;5113997;27;20019;-82
2023/07/22 04:30:20;;;;;;;1.20;1.10;;;;;;;;;;5131318;27;20403;-83
2023/07/22 04:32:49;;;;;;;;;;;;;;;;;;5132868;27;20072;-84
2023/07/22 04:35:17;;;;;;;3.58;2.25;;;;;;;;;;5112785;27;19919;-85
2023/07/22 04:37:43;;;;;;;2.05;1.45;;;;;;;;;;5112251;27;20043;-83
2023/07/22 04:40:16;;;;;;;2.20;1.88;;;;;;;;;;5115152;27;20023;-82
2023/07/22 04:42:42;;;;;;;3.03;2.05;;;;;;;;;;5130137;27;20058;-84
2023/07/22 04:45:12;;;;;;;2.42;1.50;;;;;;;;;;5132819;27;20115;-86
2023/07/22 04:47:43;;;;;;;2.20;1.95;;;;;;;;;;5115329;27;20157;-85
2023/07/22 04:50:09;;;;;;;1.13;1.00;;;;;;;;;;5133111;27;20079;-83
2023/07/22 04:52:36;;;;;;;3.97;2.05;;;;;;;;;;5133999;27;20075;-86
2023/07/22 04:55:08;;;;;;;1.20;1.08;;;;;;;;;;5127163;27;20034;-84
2023/07/22 04:57:37;;;;;;;1.50;1.35;;;;;;;;;;5114976;27;20076;-85
2023/07/22 05:00:08;;;;;;;2.33;2.13;;;;;;;;;;5131959;27;20455;-85
2023/07/22 05:02:33;;;;;;;1.70;1.15;;;;;;;;;;5129202;27;20035;-83
2023/07/22 05:04:59;;;;;;;1.08;0.95;;;;;;;;;;5132698;27;20411;-85
2023/07/22 05:07:24;;;;;;;3.80;1.35;;;;;;;;;;5133263;27;20027;-85
2023/07/22 05:09:51;;;;;;;3.15;1.45;;;;;;;;;;5133384;27;20026;-84
2023/07/22 05:12:17;;;;;;;1.63;1.13;;;;;;;;;;5133175;27;20019;-84
2023/07/22 05:14:45;;;;;;;1.52;1.10;;;;;;;;;;5132828;27;20027;-83
2023/07/22 05:17:11;;;;;;;0.88;0.88;;;;;;;;;;5132249;27;20537;-83
2023/07/22 05:19:36;;;;;;;0.95;0.88;;;;;;;;;;5111728;27;20110;-84
2023/07/22 05:22:02;;;;;;;4.20;2.03;;;;;;;;;;5132497;27;20025;-82
2023/07/22 05:24:27;;;;;;;2.28;1.45;;;;;;;;;;5130695;27;20027;-84
2023/07/22 05:26:53;;;;;;;1.25;1.10;;;;;;;;;;5132328;27;20454;-83
2023/07/22 05:29:19;;;;;;;5.63;1.52;;;;;;;;;;5132301;27;20030;-83
2023/07/22 05:31:45;;;;;;;2.75;1.77;;;;;;;;;;5129381;27;20853;-82
2023/07/22 05:34:10;;;;;;;2.92;1.20;;;;;;;;;;5129637;27;20083;-82
2023/07/22 05:36:36;;;;;;;2.00;1.75;;;;;;;;;;5131864;27;20065;-81
2023/07/22 05:39:01;;;;;;;2.50;1.42;;;;;;;;;;5113451;27;20064;-84
2023/07/22 05:41:27;;;;;;;2.95;1.40;;;;;;;;;;5123315;27;20030;-83
2023/07/22 05:43:52;;;;;;;3.17;1.83;;;;;;;;;;5131122;27;20069;-85
2023/07/22 05:46:18;;;;;;;1.42;1.20;;;;;;;;;;5126462;27;20059;-84
2023/07/22 05:48:43;;;;;;;2.60;1.48;;;;;;;;;;5129696;27;20026;-85
2023/07/22 05:51:09;;;;;;;1.70;1.40;;;;;;;;;;5129227;27;20458;-81
2023/07/22 05:53:35;;;;;;;3.47;1.42;;;;;;;;;;5131768;27;20027;-84
2023/07/22 05:56:00;;;;;;;1.90;1.27;;;;;;;;;;5129517;27;20383;-81
2023/07/22 05:58:26;;;;;;;1.70;1.30;;;;;;;;;;5130936;27;21809;-83
2023/07/22 06:00:53;;;;;;;1.83;1.40;;;;;;;;;;5131120;27;20056;-83
2023/07/22 06:03:20;;;;;;;1.95;1.58;;;;;;;;;;5131844;27;20547;-80
2023/07/22 06:05:46;;;;;;;3.58;1.30;;;;;;;;;;5128094;27;20031;-86
2023/07/22 06:08:11;;;;;;;2.55;1.67;;;;;;;;;;5127454;27;20038;-83
2023/07/22 06:10:37;;;;;;;2.20;1.63;;;;;;;;;;5126514;27;20508;-85
2023/07/22 06:13:03;;;;;;;2.40;2.00;;;;;;;;;;5129603;27;20436;-82
2023/07/22 06:15:29;;;;;;;3.17;1.52;;;;;;;;;;5128122;27;20030;-82
2023/07/22 06:17:55;;;;;;;5.85;1.30;;;;;;;;;;5131670;27;20467;-82
2023/07/22 06:20:20;;;;;;;2.47;1.70;;;;;;;;;;5109435;28;20107;-85
2023/07/22 06:22:46;;;;;;;3.03;2.33;;;;;;;;;;5111620;28;20372;-85
2023/07/22 06:25:11;;;;;;;2.53;2.30;;;;;;;;;;5131235;28;20471;-84
2023/07/22 06:27:37;;;;;;;1.77;1.60;;;;;;;;;;5131313;28;20019;-82
2023/07/22 06:30:03;;;;;;;2.58;2.15;;;;;;;;;;5112887;28;20034;-84
2023/07/22 06:32:29;;;;;;;2.00;1.67;;;;;;;;;;5131783;28;20015;-85
2023/07/22 06:34:58;;;;;;;2.83;1.58;;;;;;;;;;5132205;28;20094;-85
2023/07/22 06:37:24;;;;;;;1.98;1.77;;;;;;;;;;5131847;28;20387;-86
2023/07/22 06:39:50;;;;;;;6.75;2.55;;;;;;;;;;5131558;28;20019;-84
2023/07/22 06:42:15;;;;;;;1.65;1.52;;;;;;;;;;5128862;28;20471;-87
2023/07/22 06:44:41;;;;;;;1.52;1.02;;;;;;;;;;5132131;28;20046;-84
2023/07/22 06:47:07;;;;;;;2.58;1.80;;;;;;;;;;5128194;28;20023;-82
2023/07/22 06:49:32;;;;;;;1.80;1.38;;;;;;;;;;5131709;27;20474;-84
2023/07/22 06:51:58;;;;;;;1.70;1.60;;;;;;;;;;5132278;27;20027;-85
2023/07/22 06:54:23;;;;;;;1.90;1.30;;;;;;;;;;5136251;27;20027;-86
2023/07/22 06:56:48;;;;;;;1.65;1.48;;;;;;;;;;5132748;27;20031;-86
2023/07/22 06:59:14;;;;;;;1.60;1.50;;;;;;;;;;5118626;27;20027;-86
2023/07/22 07:01:40;;;;;;;5.70;2.15;;;;;;;;;;5117872;27;20126;-86
2023/07/22 07:04:06;;;;;;;2.85;2.08;;;;;;;;;;5136390;27;20451;-86
2023/07/22 07:06:32;;;;;;;2.35;2.08;;;;;;;;;;5115187;27;20029;-81
2023/07/22 07:09:00;;;;;;;1.27;1.13;;;;;;;;;;5134043;27;20053;-81
2023/07/22 07:11:26;;;;;;;1.92;1.75;;;;;;;;;;5135385;27;20403;-82
2023/07/22 07:13:52;;;;;;;2.92;2.33;;;;;;;;;;5128288;27;20070;-83
2023/07/22 07:16:31;;;;;;;2.60;1.75;;;;;;;;;;5116063;27;20475;-81
2023/07/22 07:18:57;;;;;;;2.67;1.80;;;;;;;;;;5114011;27;20023;-81
2023/07/22 07:21:22;;;;;;;1.83;1.50;;;;;;;;;;5129317;27;20435;-82
2023/07/22 07:23:49;;;;;;;2.58;1.90;;;;;;;;;;5113121;27;20025;-83
2023/07/22 07:26:15;;;;;;;2.95;2.40;;;;;;;;;;5131572;27;20041;-82
2023/07/22 07:28:41;;;;;;;2.40;1.83;;;;;;;;;;5131926;27;20449;-84
2023/07/22 07:31:06;;;;;;;1.73;1.42;;;;;;;;;;5133867;27;20029;-82
2023/07/22 07:33:33;;;;;;;2.30;1.73;;;;;;;;;;5135195;27;20050;-84
2023/07/22 07:35:58;;;;;;;4.63;2.33;;;;;;;;;;5135123;27;20034;-84
2023/07/22 07:38:24;;;;;;;2.92;2.17;;;;;;;;;;5131637;27;20027;-89
2023/07/22 07:40:55;;;;;;;2.97;2.05;;;;;;;;;;5116555;27;20110;-85
2023/07/22 07:43:20;;;;;;;1.85;1.65;;;;;;;;;;5115986;27;20031;-86
2023/07/22 07:45:46;;;;;;;6.85;1.63;;;;;;;;;;5132626;27;20879;-84
2023/07/22 07:48:11;;;;;;;4.43;1.80;;;;;;;;;;5133523;27;20546;-84
2023/07/22 07:50:37;;;;;;;3.17;1.67;;;;;;;;;;5135032;27;20023;-86
2023/07/22 07:53:02;;;;;;;2.63;1.83;;;;;;;;;;5133155;27;20058;-85
2023/07/22 07:55:27;;;;;;;2.03;1.65;;;;;;;;;;5134025;27;20042;-84
2023/07/22 07:57:53;;;;;;;3.28;2.33;;;;;;;;;;5133468;27;20521;-82
2023/07/22 08:00:20;;;;;;;4.03;2.17;;;;;;;;;;5132321;27;20031;-83
2023/07/22 08:02:45;;;;;;;3.35;1.77;;;;;;;;;;5115241;27;20027;-87
2023/07/22 08:05:12;;;;;;;2.92;2.17;;;;;;;;;;5133333;27;20486;-83
2023/07/22 08:07:38;;;;;;;2.55;1.90;;;;;;;;;;5134037;27;20045;-84
2023/07/22 08:10:04;;;;;;;8.48;2.70;;;;;;;;;;5135093;27;20027;-85
2023/07/22 08:12:30;;;;;;;1.88;1.55;;;;;;;;;;5134337;27;20031;-85
2023/07/22 08:14:56;;;;;;;3.60;2.65;;;;;;;;;;5131012;27;20023;-83
2023/07/22 08:17:21;;;;;;;3.90;2.38;;;;;;;;;;5127645;27;20023;-84
2023/07/22 08:19:47;;;;;;;2.60;1.75;;;;;;;;;;5132844;27;20023;-86
2023/07/22 08:22:12;;;;;;;1.58;1.30;;;;;;;;;;5130528;27;20106;-84
2023/07/22 08:24:38;;;;;;;4.05;2.10;;;;;;;;;;5132100;27;20027;-82
2023/07/22 08:27:04;;;;;;;2.47;1.77;;;;;;;;;;5111529;27;20019;-84
2023/07/22 08:29:29;;;;;;;1.98;1.65;;;;;;;;;;5131762;27;20027;-82
2023/07/22 08:31:55;;;;;;;2.75;1.95;;;;;;;;;;5134084;27;20383;-83
2023/07/22 08:34:23;;;;;;;3.55;2.40;;;;;;;;;;5132467;27;20099;-84
2023/07/22 08:36:49;;;;;;;2.42;1.83;;;;;;;;;;5133404;27;20030;-86
2023/07/22 08:39:14;;;;;;;2.97;2.08;;;;;;;;;;5114036;27;20027;-85
2023/07/22 08:41:42;;;;;;;3.10;2.40;;;;;;;;;;5115915;27;20023;-83
2023/07/22 08:44:09;;;;;;;5.78;2.83;;;;;;;;;;5132992;27;20039;-82
2023/07/22 08:46:36;;;;;;;3.45;1.95;;;;;;;;;;5126274;27;20096;-83
2023/07/22 08:49:05;;;;;;;2.53;2.05;;;;;;;;;;5134255;27;20387;-84
2023/07/22 08:51:32;;;;;;;2.75;2.35;;;;;;;;;;5133979;27;20027;-83
2023/07/22 08:53:58;;;;;;;2.67;1.95;;;;;;;;;;5134106;27;20453;-83
2023/07/22 08:56:25;;;;;;;4.75;2.67;;;;;;;;;;5131270;27;20102;-83
2023/07/22 08:58:52;;;;;;;2.35;2.00;;;;;;;;;;5133687;27;20027;-84
2023/07/22 09:01:17;;;;;;;4.88;2.22;;;;;;;;;;5131851;27;20027;-84
2023/07/22 09:03:43;;;;;;;2.47;1.90;;;;;;;;;;5132855;27;20046;-84
2023/07/22 09:06:10;;;;;;;2.20;1.83;;;;;;;;;;5127859;27;20027;-83
2023/07/22 09:08:35;;;;;;;3.13;1.90;;;;;;;;;;5131830;27;20415;-82
2023/07/22 09:11:01;;;;;;;3.00;2.10;;;;;;;;;;5133074;27;20047;-82
2023/07/22 09:13:28;;;;;;;4.43;2.03;;;;;;;;;;5131996;27;20158;-81
2023/07/22 09:15:56;;;;;;;1.92;1.55;;;;;;;;;;5131278;27;20023;-83
2023/07/22 09:18:22;;;;;;;2.25;1.83;;;;;;;;;;5130264;27;20087;-82
2023/07/22 09:20:48;;;;;;;2.42;1.88;;;;;;;;;;5113669;27;20031;-82
2023/07/22 09:23:13;;;;;;;12.60;2.47;;;;;;;;;;5131431;27;20039;-81
2023/07/22 09:25:40;;;;;;;3.60;2.60;;;;;;;;;;5128554;27;20482;-82
2023/07/22 09:28:06;;;;;;;2.67;1.92;;;;;;;;;;5131174;27;20027;-81
2023/07/22 09:30:38;;;;;;;2.80;2.22;;;;;;;;;;5132606;27;20691;-82
2023/07/22 09:33:04;;;;;;;2.28;1.52;;;;;;;;;;5124279;27;20023;-82
2023/07/22 09:35:50;;;;;;;2.40;2.00;;;;;;;;;;5130672;27;20379;-82
2023/07/22 09:38:25;;;;;;;7.80;2.38;;;;;;;;;;5127930;27;20042;-82
2023/07/22 09:40:51;;;;;;;3.80;2.45;;;;;;;;;;5132491;27;20068;-82
2023/07/22 09:43:16;;;;;;;1.98;1.50;;;;;;;;;;5113691;27;20054;-82
2023/07/22 09:45:47;;;;;;;3.38;2.60;;;;;;;;;;5113689;27;20508;-82
2023/07/22 09:48:13;;;;;;;2.38;1.90;;;;;;;;;;5132069;27;20528;-82
2023/07/22 09:50:38;;;;;;;2.20;1.85;;;;;;;;;;5131049;27;20027;-82
2023/07/22 09:53:05;;;;;;;4.25;2.17;;;;;;;;;;5128416;27;20027;-83
2023/07/22 09:55:32;;;;;;;2.97;1.85;;;;;;;;;;5130788;27;20076;-83
2023/07/22 09:58:10;;;;;;;2.15;1.90;;;;;;;;;;5131425;27;20446;-82
2023/07/22 10:00:36;;;;;;;4.77;2.77;;;;;;;;;;5131746;27;20047;-82
2023/07/22 10:03:06;;;;;;;2.80;1.75;;;;;;;;;;5131963;27;20399;-83
2023/07/22 10:05:34;;;;;;;2.30;1.73;;;;;;;;;;5131785;27;20459;-82
2023/07/22 10:08:02;;;;;;;5.80;2.42;;;;;;;;;;5129113;27;20023;-82
2023/07/22 10:10:33;;;;;;;3.33;2.45;;;;;;;;;;5130280;27;20019;-82
2023/07/22 10:12:59;;;;;;;3.42;1.73;;;;;;;;;;5111032;28;20383;-82
2023/07/22 10:15:28;;;;;;;8.15;2.28;;;;;;;;;;5130751;27;20035;-82
2023/07/22 10:17:55;;;;;;;4.78;2.25;;;;;;;;;;5131973;27;20023;-83
2023/07/22 10:20:22;;;;;;;3.05;1.70;;;;;;;;;;5128150;28;20051;-83
2023/07/22 10:22:47;;;;;;;1.98;1.70;;;;;;;;;;5129498;28;20398;-81
2023/07/22 10:25:15;;;;;;;3.08;2.25;;;;;;;;;;5135498;27;20121;-82
2023/07/22 10:27:41;;;;;;;3.65;1.75;;;;;;;;;;5114288;27;20063;-82
2023/07/22 10:30:11;;;;;;;2.45;1.40;;;;;;;;;;5128950;27;20436;-83
2023/07/22 10:32:41;;;;;;;3.70;1.95;;;;;;;;;;5134786;27;20019;-82
2023/07/22 10:35:12;;;;;;;2.90;1.83;;;;;;;;;;5135621;27;20102;-82
2023/07/22 10:37:45;;;;;;;2.47;1.25;;;;;;;;;;5135644;27;20030;-82
2023/07/22 10:40:30;;;;;;;4.05;2.15;;;;;;;;;;5131703;27;20031;-83
2023/07/22 10:43:05;;;;;;;3.08;1.52;;;;;;;;;;5130853;27;20027;-83
2023/07/22 10:45:33;;;;;;;3.22;1.48;;;;;;;;;;5132851;27;20364;-82
2023/07/22 10:48:14;;;;;;;1.50;1.15;;;;;;;;;;5134156;27;20050;-82
2023/07/22 10:50:46;;;;;;;4.20;1.45;;;;;;;;;;5135200;27;20396;-82
2023/07/22 10:53:24;;;;;;;2.28;1.50;;;;;;;;;;5132383;27;20061;-83
2023/07/22 10:56:14;;;;;;;3.13;1.00;;;;;;;;;;5135136;27;20042;-83
2023/07/22 10:58:56;;;;;;;2.00;1.23;;;;;;;;;;5133221;27;20042;-83
2023/07/22 11:01:27;;;;;;;2.47;1.15;;;;;;;;;;5131688;27;20394;-83
2023/07/22 11:04:22;;;;;;;1.70;1.30;;;;;;;;;;5132062;27;20031;-82
2023/07/22 11:06:47;;;;;;;2.90;1.33;;;;;;;;;;5135018;27;20046;-83
2023/07/22 11:09:34;;;;;;;0.52;0.50;;;;;;;;;;5132261;27;20070;-82
2023/07/22 11:12:11;;;;;;;4.85;1.25;;;;;;;;;;5114353;27;20399;-82
2023/07/22 11:14:47;;;;;;;1.10;0.57;;;;;;;;;;5134767;27;20062;-82
2023/07/22 11:17:13;;;;;;;4.25;1.58;;;;;;;;;;5132413;27;20104;-82
2023/07/22 11:19:39;;;;;;;7.28;2.05;;;;;;;;;;5134349;27;20034;-84
2023/07/22 11:22:05;;;;;;;1.60;1.10;;;;;;;;;;5134816;27;20028;-83
2023/07/22 11:24:34;;;;;;;1.15;0.75;;;;;;;;;;5134600;27;20446;-83
2023/07/22 11:27:02;;;;;;;1.27;0.82;;;;;;;;;;5130325;27;20051;-80
2023/07/22 11:29:27;;;;;;;1.60;0.85;;;;;;;;;;5134936;27;20064;-83
2023/07/22 11:31:53;;;;;;;3.00;1.27;;;;;;;;;;5131304;27;20020;-82
2023/07/22 11:34:20;;;;;;;2.45;1.40;;;;;;;;;;5132862;27;20035;-83
2023/07/22 11:36:47;;;;;;;1.38;1.02;;;;;;;;;;5114819;27;20027;-83
2023/07/22 11:39:16;;;;;;;3.38;0.90;;;;;;;;;;5134231;27;20031;-83
2023/07/22 11:41:42;;;;;;;1.45;0.85;;;;;;;;;;5133897;27;20446;-83
2023/07/22 11:44:09;;;;;;;3.15;1.67;;;;;;;;;;5131853;27;20092;-82
2023/07/22 11:46:48;;;;;;;3.38;1.33;;;;;;;;;;5134805;27;20019;-83
2023/07/22 11:49:25;;;;;;;2.85;1.08;;;;;;;;;;5131526;27;20465;-83
2023/07/22 11:51:51;;;;;;;2.38;1.25;;;;;;;;;;5133461;27;20376;-83
2023/07/22 11:54:17;;;;;;;1.88;0.93;;;;;;;;;;5133752;27;20555;-84
2023/07/22 11:56:43;;;;;;;1.38;0.88;;;;;;;;;;5132766;27;20027;-83
2023/07/22 11:59:08;;;;;;;2.25;1.10;;;;;;;;;;5129415;27;20031;-83
2023/07/22 12:01:34;;;;;;;1.48;0.60;;;;;;;;;;5133049;27;20024;-85
2023/07/22 12:04:00;;;;;;;4.57;1.00;;;;;;;;;;5129712;27;20023;-85
2023/07/22 12:06:26;;;;;;;3.40;1.35;;;;;;;;;;5129760;27;20094;-85
2023/07/22 12:08:52;;;;;;;1.80;1.25;;;;;;;;;;5131359;27;20031;-85
2023/07/22 12:11:22;;;;;;;1.90;1.02;;;;;;;;;;5113849;27;20419;-85
2023/07/22 12:14:07;;;;;;;3.75;0.93;;;;;;;;;;5128781;27;20023;-85
2023/07/22 12:16:35;;;;;;;1.15;0.77;;;;;;;;;;5133127;27;20072;-84
2023/07/22 12:19:01;;;;;;;1.37;0.90;;;;;;;;;;5130907;27;20105;-85
2023/07/22 12:21:27;;;;;;;0.75;0.73;;;;;;;;;;5131314;27;20416;-85
2023/07/22 12:23:53;;;;;;;4.32;1.75;;;;;;;;;;5131515;27;20034;-85
2023/07/22 12:26:19;;;;;;;4.15;1.13;;;;;;;;;;5132953;27;20027;-83
2023/07/22 12:28:44;;;;;;;1.42;1.20;;;;;;;;;;5133207;27;20027;-85
2023/07/22 12:31:10;;;;;;;4.35;1.38;;;;;;;;;;5133476;27;20011;-84
2023/07/22 12:33:35;;;;;;;1.92;1.02;;;;;;;;;;5132528;27;20030;-86
2023/07/22 12:36:01;;;;;;;2.30;1.00;;;;;;;;;;5133288;27;20023;-88
2023/07/22 12:38:27;;;;;;;3.42;1.50;;;;;;;;;;5112046;27;20546;-85
2023/07/22 12:40:53;;;;;;;3.03;0.93;;;;;;;;;;5128428;27;20035;-84
2023/07/22 12:43:18;;;;;;;1.80;1.08;;;;;;;;;;5128639;27;20111;-88
2023/07/22 12:45:43;;;;;;;2.03;0.88;;;;;;;;;;5133166;27;20051;-86
2023/07/22 12:48:09;;;;;;;2.20;1.13;;;;;;;;;;5132167;27;20437;-86
2023/07/22 12:50:35;;;;;;;4.18;1.25;;;;;;;;;;5131534;27;20027;-85
2023/07/22 12:53:01;;;;;;;1.90;1.17;;;;;;;;;;5113692;27;20035;-85
2023/07/22 12:55:26;;;;;;;4.32;1.08;;;;;;;;;;5131633;27;20027;-87
2023/07/22 12:57:52;;;;;;;2.05;1.00;;;;;;;;;;5130427;27;20053;-84
2023/07/22 13:00:17;;;;;;;1.85;1.13;;;;;;;;;;5132769;27;20525;-83
2023/07/22 13:02:43;;;;;;;0.50;0.50;;;;;;;;;;5129960;27;20019;-86
2023/07/22 13:05:09;;;;;;;1.70;1.02;;;;;;;;;;5145346;27;20051;-84
2023/07/22 13:07:34;;;;;;;1.73;0.85;;;;;;;;;;5107956;27;20109;-86
2023/07/22 13:10:02;;;;;;;1.35;0.90;;;;;;;;;;5128288;27;20114;-84
2023/07/22 13:12:30;;;;;;;2.35;1.10;;;;;;;;;;5129044;27;20098;-86
2023/07/22 13:14:56;;;;;;;2.37;1.20;;;;;;;;;;5132667;27;20026;-86
2023/07/22 13:17:21;;;;;;;4.70;0.98;;;;;;;;;;5112320;27;20027;-82
2023/07/22 13:19:46;;;;;;;3.95;1.92;;;;;;;;;;5112315;27;20523;-84
2023/07/22 13:22:12;;;;;;;0.85;0.70;;;;;;;;;;5130793;27;20059;-85
2023/07/22 13:24:37;;;;;;;4.20;1.20;;;;;;;;;;5130734;27;20040;-85
2023/07/22 13:27:04;;;;;;;2.40;1.65;;;;;;;;;;5131902;27;20582;-84
2023/07/22 13:29:29;;;;;;;1.80;1.33;;;;;;;;;;5111198;27;20035;-87
2023/07/22 13:31:54;;;;;;;1.25;0.77;;;;;;;;;;5129762;27;20015;-83
2023/07/22 13:34:20;;;;;;;1.17;0.80;;;;;;;;;;5130360;27;20119;-86
2023/07/22 13:36:46;;;;;;;4.25;1.05;;;;;;;;;;5112938;27;20109;-86
2023/07/22 13:39:11;;;;;;;4.10;1.48;;;;;;;;;;5108827;27;20416;-85
2023/07/22 13:41:36;;;;;;;1.25;0.85;;;;;;;;;;5131844;27;20035;-86
2023/07/22 13:44:02;;;;;;;1.83;1.20;;;;;;;;;;5131880;27;20074;-87
2023/07/22 13:46:28;;;;;;;2.63;1.25;;;;;;;;;;5112358;27;20103;-86
2023/07/22 13:48:53;;;;;;;3.92;1.00;;;;;;;;;;5110988;27;20041;-86
2023/07/22 13:51:19;;;;;;;2.33;0.80;;;;;;;;;;5131191;27;20027;-85
2023/07/22 13:53:44;;;;;;;7.03;1.70;;;;;;;;;;5130776;27;20080;-86
2023/07/22 13:56:09;;;;;;;1.65;0.95;;;;;;;;;;5104581;27;20031;-86
2023/07/22 13:58:35;;;;;;;1.55;1.05;;;;;;;;;;5129509;27;20031;-84
2023/07/22 14:01:00;;;;;;;3.25;1.08;;;;;;;;;;5131006;27;20030;-86
2023/07/22 14:03:26;;;;;;;1.67;0.85;;;;;;;;;;5130750;27;20435;-86
2023/07/22 14:05:51;;;;;;;3.55;1.25;;;;;;;;;;5128949;27;20015;-86
2023/07/22 14:08:20;;;;;;;3.25;1.30;;;;;;;;;;5106704;27;20038;-86
2023/07/22 14:10:45;;;;;;;2.75;1.02;;;;;;;;;;5131158;27;20035;-84
2023/07/22 14:13:11;;;;;;;3.25;1.20;;;;;;;;;;5130839;27;20498;-83
2023/07/22 14:15:37;;;;;;;2.42;1.45;;;;;;;;;;5128224;27;20027;-84
2023/07/22 14:18:03;;;;;;;1.52;0.90;;;;;;;;;;5125616;27;20034;-83
2023/07/22 14:20:30;;;;;;;3.60;0.88;;;;;;;;;;5123307;27;20023;-85
2023/07/22 14:22:56;;;;;;;2.78;1.10;;;;;;;;;;5126629;28;20387;-86
2023/07/22 14:25:21;;;;;;;2.30;1.10;;;;;;;;;;5111843;28;20027;-86
2023/07/22 14:27:47;;;;;;;3.70;1.30;;;;;;;;;;5115334;28;20066;-86
2023/07/22 14:30:12;;;;;;;0.98;0.68;;;;;;;;;;5128537;28;20393;-86
2023/07/22 14:32:38;;;;;;;2.60;1.15;;;;;;;;;;5112605;28;20026;-91
2023/07/22 14:35:04;;;;;;;2.08;0.77;;;;;;;;;;5131276;28;20035;-88
2023/07/22 14:37:30;;;;;;;1.63;1.10;;;;;;;;;;5129235;27;20493;-84
2023/07/22 14:39:56;;;;;;;3.90;1.48;;;;;;;;;;5129466;28;20031;-88
2023/07/22 14:42:21;;;;;;;3.25;1.40;;;;;;;;;;5112061;28;20031;-85
2023/07/22 14:44:46;;;;;;;2.92;1.20;;;;;;;;;;5130203;28;20047;-87